Time;durP1;ratioP1;P1;durP2;ratioP2;P2;SDS_P1;SDS_P2;PMS_P1;PMS_P2;Temp;Humidity;BMP_temperature;BMP_pressure;BME280_temperature;BME280_humidity;BME280_pressure;Samples;Min_cycle;Max_cycle;Signal;HPM_P1;HPM_P2
2022/01/25 00:24:23;;;;;;;60.70;34.37;;;;;;;5.28;73.83;103260.19;5035052;28;20057;-59
2022/01/25 00:32:13;;;;;;;55.85;34.97;;;;;;;5.29;74.04;103253.22;5021992;28;20061;-59
2022/01/25 00:34:40;;;;;;;58.75;34.60;;;;;;;5.29;73.90;103261.03;5034714;28;20041;-59
2022/01/25 00:37:07;;;;;;;60.17;35.10;;;;;;;5.25;74.17;103261.88;5034726;28;20046;-59
2022/01/25 00:39:34;;;;;;;56.15;34.17;;;;;;;5.27;74.16;103257.53;5034611;28;20430;-59
2022/01/25 00:42:01;;;;;;;59.25;34.33;;;;;;;5.26;74.17;103261.88;5034270;28;20038;-59
2022/01/25 00:44:34;;;;;;;60.30;34.88;;;;;;;5.26;74.13;103264.50;5033629;28;20051;-58
2022/01/25 00:47:02;;;;;;;64.82;36.95;;;;;;;5.25;74.18;103254.94;5034389;28;20478;-59
2022/01/25 00:49:29;;;;;;;60.13;36.00;;;;;;;5.28;74.40;103261.88;5034301;28;20540;-59
2022/01/25 00:52:04;;;;;;;60.45;35.97;;;;;;;5.29;74.01;103256.69;5034174;28;20053;-58
2022/01/25 00:54:34;;;;;;;65.70;37.65;;;;;;;5.28;74.23;103268.00;5034284;28;20505;-58
2022/01/25 00:57:01;;;;;;;58.60;34.55;;;;;;;5.31;74.18;103269.72;5034192;28;20049;-58
2022/01/25 00:59:31;;;;;;;62.90;36.28;;;;;;;5.30;73.96;103268.84;5034128;28;20060;-58
2022/01/25 01:02:03;;;;;;;65.07;37.13;;;;;;;5.27;74.17;103268.84;5032273;28;20111;-59
2022/01/25 01:04:32;;;;;;;65.60;36.08;;;;;;;5.28;74.06;103272.31;5034100;28;20422;-59
2022/01/25 01:07:01;;;;;;;61.78;35.10;;;;;;;5.20;74.07;103275.72;5034337;28;20049;-58
2022/01/25 01:09:32;;;;;;;68.35;35.90;;;;;;;5.17;74.30;103280.91;5034030;28;20041;-59
2022/01/25 01:12:08;;;;;;;60.58;34.78;;;;;;;5.19;74.11;103284.41;5033866;28;20111;-59
2022/01/25 01:14:58;;;;;;;63.47;36.03;;;;;;;5.22;74.22;103274.00;5033752;28;20077;-59
2022/01/25 01:44:28;;;;;;;58.10;34.67;;;;;;;5.24;74.23;103274.00;5033411;28;20405;-59
2022/01/25 01:47:07;;;;;;;55.88;33.03;;;;;;;5.25;74.10;103273.16;5033253;28;20049;-58
2022/01/25 01:49:43;;;;;;;53.72;33.30;;;;;;;5.24;74.14;103271.41;5033153;28;20049;-59
2022/01/25 01:52:11;;;;;;;;;;;;;;;5.22;74.30;103270.53;5033804;28;20067;-59
2022/01/25 01:54:39;;;;;;;61.70;34.58;;;;;;;5.23;74.15;103267.94;5032675;28;19921;-58
2022/01/25 01:57:06;;;;;;;56.88;33.05;;;;;;;5.25;74.21;103262.75;5032976;28;20054;-58
2022/01/25 01:59:33;;;;;;;51.38;32.78;;;;;;;5.26;74.06;103259.28;5032893;28;20406;-60
2022/01/25 02:02:01;;;;;;;56.95;32.95;;;;;;;5.25;74.08;103261.88;5033300;28;20053;-58
2022/01/25 02:04:28;;;;;;;54.50;32.22;;;;;;;5.25;74.25;103267.09;5033176;28;20057;-58
2022/01/25 02:06:55;;;;;;;53.20;32.38;;;;;;;5.22;74.04;103261.00;5032897;28;20099;-59
2022/01/25 02:09:21;;;;;;;58.88;33.33;;;;;;;5.25;74.24;103262.75;5032840;28;20100;-59
2022/01/25 02:11:48;;;;;;;55.50;31.58;;;;;;;5.22;73.99;103261.00;5031445;28;20119;-59
2022/01/25 02:14:16;;;;;;;53.17;32.78;;;;;;;5.20;74.40;103259.25;5032695;28;20048;-58
2022/01/25 02:24:49;;;;;;;55.60;33.28;;;;;;;5.19;74.18;103244.47;5028591;28;20050;-60
2022/01/25 02:27:15;;;;;;;54.33;33.92;;;;;;;5.19;74.25;103247.06;5031451;28;20088;-58
2022/01/25 02:29:43;;;;;;;55.30;32.25;;;;;;;5.17;74.30;103243.63;5032494;28;20478;-59
2022/01/25 02:32:11;;;;;;;58.08;33.05;;;;;;;5.18;74.41;103241.00;5032551;28;20060;-66
2022/01/25 02:34:37;;;;;;;57.72;34.15;;;;;;;5.17;74.38;103238.41;5032234;28;20583;-59
2022/01/25 02:37:07;;;;;;;57.35;33.75;;;;;;;5.17;74.31;103241.00;5032446;28;20065;-59
2022/01/25 02:39:37;;;;;;;57.83;33.80;;;;;;;5.16;74.44;103244.47;5032205;28;20049;-59
2022/01/25 02:42:06;;;;;;;57.15;33.22;;;;;;;5.15;74.59;103233.16;5031849;28;20107;-58
2022/01/25 02:44:35;;;;;;;56.05;33.55;;;;;;;5.17;74.40;103238.41;5031278;28;20108;-59
2022/01/25 02:49:31;;;;;;;55.88;32.72;;;;;;;5.16;74.39;103237.53;5032150;28;20405;-58
2022/01/25 02:52:00;;;;;;;58.65;34.15;;;;;;;5.19;74.23;103234.06;5032179;28;20049;-59
2022/01/25 02:54:28;;;;;;;55.47;32.75;;;;;;;5.16;74.49;103231.47;5032243;28;20045;-58
2022/01/25 02:56:56;;;;;;;60.55;32.65;;;;;;;5.16;74.37;103232.31;5031979;28;20042;-59
2022/01/25 02:59:22;;;;;;;59.55;34.88;;;;;;;5.16;74.30;103237.53;5032314;28;20068;-59
2022/01/25 03:01:50;;;;;;;56.25;32.78;;;;;;;5.17;74.61;103234.06;5031265;28;20445;-59
2022/01/25 03:04:20;;;;;;;56.22;32.83;;;;;;;5.14;74.36;103228.84;5032203;28;20053;-59
2022/01/25 03:06:47;;;;;;;59.10;33.65;;;;;;;5.14;74.29;103228.84;5032019;28;20083;-58
2022/01/25 03:09:14;;;;;;;56.65;33.47;;;;;;;5.14;74.44;103228.84;5032245;28;20054;-59
2022/01/25 03:11:44;;;;;;;56.22;33.03;;;;;;;5.14;74.46;103221.03;5031914;28;20050;-58
2022/01/25 03:14:11;;;;;;;59.80;33.63;;;;;;;5.17;74.35;103228.00;5032169;28;20041;-59
2022/01/25 03:17:03;;;;;;;55.00;33.50;;;;;;;5.14;74.39;103221.03;5030935;28;20076;-59
2022/01/25 03:22:16;;;;;;;58.97;33.47;;;;;;;5.14;74.39;103218.44;5031993;28;20055;-58
2022/01/25 03:24:43;;;;;;;57.72;33.83;;;;;;;5.16;74.36;103221.03;5031944;28;20042;-58
2022/01/25 03:27:10;;;;;;;58.55;35.05;;;;;;;5.16;74.06;103215.84;5032033;28;20100;-58
2022/01/25 03:29:36;;;;;;;55.55;34.15;;;;;;;5.14;74.38;103215.84;5031881;28;20095;-58
2022/01/25 03:32:04;;;;;;;60.15;34.78;;;;;;;5.13;74.24;103218.41;5031653;28;20080;-58
2022/01/25 03:34:31;;;;;;;57.33;32.85;;;;;;;5.13;74.31;103224.50;5031028;28;20042;-59
2022/01/25 03:36:58;;;;;;;53.33;32.75;;;;;;;5.13;74.34;103218.41;5031584;28;20095;-58
2022/01/25 03:39:25;;;;;;;53.38;32.90;;;;;;;5.13;74.37;103221.00;5031954;28;20065;-58
2022/01/25 03:41:52;;;;;;;55.35;33.00;;;;;;;5.15;74.15;103220.16;5031442;28;20483;-58
2022/01/25 03:44:19;;;;;;;56.30;34.38;;;;;;;5.13;74.21;103224.50;5031888;28;20437;-59
2022/01/25 03:52:01;;;;;;;56.23;34.03;;;;;;;5.10;74.39;103211.44;5031190;28;20038;-59
2022/01/25 03:54:29;;;;;;;55.60;34.40;;;;;;;5.10;74.42;103216.66;5035455;28;20045;-59
2022/01/25 03:56:55;;;;;;;54.85;33.95;;;;;;;5.09;74.30;103214.06;5035212;28;20406;-58
2022/01/25 03:59:22;;;;;;;59.58;34.58;;;;;;;5.10;74.18;103211.44;5035249;28;20053;-59
2022/01/25 04:01:49;;;;;;;57.10;34.15;;;;;;;5.11;74.08;103218.41;5034023;28;20049;-59
2022/01/25 04:04:20;;;;;;;56.45;33.90;;;;;;;5.12;74.27;103208.88;5030830;28;20041;-59
2022/01/25 04:06:50;;;;;;;57.20;34.83;;;;;;;5.12;73.99;103214.94;5030789;28;20053;-59
2022/01/25 04:09:17;;;;;;;61.30;35.83;;;;;;;5.10;74.04;103202.78;5031604;28;20049;-59
2022/01/25 04:11:44;;;;;;;60.15;35.75;;;;;;;5.09;74.13;103207.09;5031508;28;20111;-58
2022/01/25 04:14:11;;;;;;;58.47;35.60;;;;;;;5.09;74.05;103203.63;5031834;28;20069;-59
2022/01/25 04:16:48;;;;;;;58.22;35.75;;;;;;;5.09;74.05;103206.25;5031659;28;20064;-58
2022/01/25 04:19:29;;;;;;;61.55;34.67;;;;;;;5.11;74.22;103208.00;5031578;28;20060;-58
2022/01/25 04:25:13;;;;;;;59.67;33.33;;;;;;;5.09;73.84;103199.28;5019485;28;20493;-59
2022/01/25 04:27:41;;;;;;;61.85;35.05;;;;;;;5.09;73.96;103203.63;5031531;28;20053;-59
2022/01/25 04:30:08;;;;;;;63.30;36.35;;;;;;;5.07;73.93;103196.69;5031463;28;20092;-58
2022/01/25 04:32:43;;;;;;;62.85;36.50;;;;;;;5.09;74.04;103198.44;5031291;28;20489;-59
2022/01/25 04:54:23;;;;;;;71.05;39.75;;;;;;;4.90;74.35;103187.91;5031148;28;20057;-59
2022/01/25 04:57:14;;;;;;;65.65;37.80;;;;;;;4.88;74.04;103184.44;5029738;28;20060;-59
2022/01/25 05:04:59;;;;;;;65.50;38.00;;;;;;;4.90;74.29;103177.50;5029420;28;20315;-58
2022/01/25 05:10:11;;;;;;;65.60;37.88;;;;;;;4.90;73.98;103173.19;5030179;28;20091;-59
2022/01/25 05:15:38;;;;;;;62.17;37.78;;;;;;;4.89;74.13;103167.97;5029755;28;20486;-59
2022/01/25 05:23:17;;;;;;;64.80;37.65;;;;;;;4.92;73.91;103167.97;5030502;28;20045;-59
2022/01/25 05:25:43;;;;;;;70.18;40.58;;;;;;;4.87;73.97;103162.72;5030543;28;20509;-59
2022/01/25 05:28:10;;;;;;;68.55;38.45;;;;;;;4.86;74.13;103155.81;5030163;28;20045;-59
2022/01/25 05:30:37;;;;;;;68.35;39.35;;;;;;;4.88;74.02;103155.81;5030382;28;20064;-59
2022/01/25 05:33:03;;;;;;;67.35;39.58;;;;;;;4.89;74.09;103160.16;5029690;28;20060;-58
2022/01/25 05:35:31;;;;;;;70.28;41.08;;;;;;;4.85;74.27;103158.38;5030485;28;20054;-58
2022/01/25 05:37:58;;;;;;;71.20;40.83;;;;;;;4.87;73.87;103148.88;5030362;28;20618;-59
2022/01/25 05:48:12;;;;;;;75.03;41.95;;;;;;;4.84;73.94;103144.50;5028864;28;20049;-58
2022/01/25 05:50:38;;;;;;;76.70;41.80;;;;;;;4.89;73.81;103152.34;5029610;28;20524;-59
2022/01/25 05:53:06;;;;;;;75.72;41.88;;;;;;;4.89;73.67;103150.63;5030169;28;20072;-58
2022/01/25 05:55:34;;;;;;;84.15;43.45;;;;;;;4.85;74.16;103145.38;5029986;28;20049;-67
2022/01/25 05:58:00;;;;;;;77.97;42.38;;;;;;;4.80;73.91;103145.38;5029649;28;20045;-59
2022/01/25 06:00:27;;;;;;;76.40;41.58;;;;;;;4.81;74.13;103148.81;5029848;28;20049;-59
2022/01/25 06:02:55;;;;;;;78.78;42.38;;;;;;;4.86;73.76;103148.00;5028752;28;20184;-59
2022/01/25 06:05:25;;;;;;;76.00;40.10;;;;;;;4.86;73.75;103147.13;5018742;28;20056;-60
2022/01/25 06:07:53;;;;;;;73.13;39.97;;;;;;;4.87;73.52;103147.13;5029477;28;20052;-59
2022/01/25 06:10:19;;;;;;;74.55;41.80;;;;;;;4.85;73.42;103147.97;5029716;28;20041;-60
2022/01/25 06:12:46;;;;;;;75.70;40.60;;;;;;;4.86;73.65;103147.13;5029056;28;20053;-59
2022/01/25 06:15:13;;;;;;;72.03;39.20;;;;;;;4.84;73.65;103143.66;5029296;28;20049;-59
2022/01/25 06:17:39;;;;;;;74.00;39.17;;;;;;;4.79;73.76;103141.00;5029221;28;20095;-66
2022/01/25 06:20:13;;;;;;;70.25;39.70;;;;;;;4.77;73.74;103149.66;5028732;28;20044;-64
2022/01/25 06:22:43;;;;;;;67.40;38.45;;;;;;;4.71;73.69;103142.69;5028441;28;20088;-58
2022/01/25 06:25:11;;;;;;;66.82;38.15;;;;;;;4.68;73.61;103145.28;5029207;28;20433;-59
2022/01/25 06:27:39;;;;;;;66.13;37.42;;;;;;;4.66;73.82;103142.66;5029308;28;20056;-59
2022/01/25 06:30:12;;;;;;;69.60;38.97;;;;;;;4.60;73.92;103147.81;5029205;28;20045;-57
2022/01/25 06:32:40;;;;;;;63.53;36.67;;;;;;;4.56;73.66;103146.06;5034245;28;20045;-59
2022/01/25 06:35:07;;;;;;;65.40;36.72;;;;;;;4.59;74.03;103146.06;5035179;28;20068;-58
2022/01/25 06:37:34;;;;;;;63.70;36.50;;;;;;;4.54;73.90;103138.22;5027952;28;20049;-57
2022/01/25 06:40:02;;;;;;;64.70;37.47;;;;;;;4.56;73.64;103140.88;5028797;28;20060;-57
2022/01/25 06:42:31;;;;;;;63.92;38.17;;;;;;;4.53;73.87;103141.72;5028638;28;20053;-64
2022/01/25 06:45:04;;;;;;;66.28;36.90;;;;;;;4.57;73.54;103145.19;5028877;28;20099;-56
2022/01/25 06:47:31;;;;;;;61.15;34.72;;;;;;;4.57;73.72;103151.28;5028845;28;20045;-58
2022/01/25 06:49:57;;;;;;;63.97;36.00;;;;;;;4.57;73.70;103145.19;5029041;28;20051;-58
2022/01/25 06:52:24;;;;;;;66.50;38.78;;;;;;;4.78;73.06;103149.69;5027738;28;20042;-59
2022/01/25 06:54:51;;;;;;;66.55;37.95;;;;;;;4.72;73.25;103142.72;5028195;28;20490;-59
2022/01/25 06:57:18;;;;;;;65.85;36.53;;;;;;;4.69;73.49;103145.28;5028849;28;20076;-59
2022/01/25 06:59:45;;;;;;;64.93;36.95;;;;;;;4.65;73.23;103150.47;5028744;28;20068;-58
2022/01/25 07:02:12;;;;;;;62.97;36.83;;;;;;;4.60;73.48;103140.03;5028940;28;20047;-59
2022/01/25 07:04:39;;;;;;;67.25;36.28;;;;;;;4.58;73.62;103144.31;5028694;28;20128;-60
2022/01/25 07:07:06;;;;;;;64.47;35.10;;;;;;;4.73;73.34;103138.38;5028106;28;20083;-58
2022/01/25 07:09:34;;;;;;;63.78;36.72;;;;;;;4.67;73.56;103144.41;5028414;28;20057;-59
2022/01/25 07:12:02;;;;;;;65.53;36.30;;;;;;;4.65;73.44;103143.53;5028300;28;20050;-59
2022/01/25 07:14:30;;;;;;;68.80;37.85;;;;;;;4.63;73.34;103144.38;5028428;28;20057;-60
2022/01/25 07:16:56;;;;;;;69.47;37.85;;;;;;;4.56;73.50;103143.47;5035871;28;20138;-59
2022/01/25 07:19:24;;;;;;;68.10;38.72;;;;;;;4.64;73.38;103146.97;5042883;28;20045;-59
2022/01/25 07:21:51;;;;;;;65.18;36.95;;;;;;;4.63;73.47;103140.03;5038921;28;20071;-60
2022/01/25 07:24:18;;;;;;;64.97;36.92;;;;;;;4.70;73.44;103136.63;5041392;28;20049;-60
2022/01/25 07:26:44;;;;;;;64.82;36.70;;;;;;;4.67;73.32;103140.94;5030248;28;20123;-59
2022/01/25 07:29:11;;;;;;;70.20;39.55;;;;;;;4.72;73.23;103144.44;5024620;28;20052;-59
2022/01/25 07:31:38;;;;;;;68.88;37.58;;;;;;;4.77;73.24;103142.72;5033722;28;20041;-58
2022/01/25 07:34:14;;;;;;;64.70;36.90;;;;;;;4.70;73.41;103138.38;5037500;28;20057;-59
2022/01/25 07:36:52;;;;;;;64.68;35.88;;;;;;;4.77;73.24;103136.66;5034085;28;20060;-59
2022/01/25 07:39:26;;;;;;;64.90;36.85;;;;;;;4.78;73.19;103138.41;5036221;28;20421;-59
2022/01/25 07:42:01;;;;;;;66.32;36.80;;;;;;;4.72;73.05;103141.81;5043030;28;20132;-58
2022/01/25 07:44:31;;;;;;;67.07;37.00;;;;;;;4.71;73.18;103142.69;5033852;28;20448;-57
2022/01/25 07:47:04;;;;;;;;;;;;;;;4.76;73.08;103140.13;5035510;28;20048;-59
2022/01/25 07:49:33;;;;;;;65.53;36.80;;;;;;;4.80;73.00;103132.34;5032504;28;19955;-58
2022/01/25 07:52:03;;;;;;;70.85;39.60;;;;;;;4.79;73.25;103130.59;5031516;28;20160;-58
2022/01/25 07:54:30;;;;;;;66.72;37.88;;;;;;;4.74;72.93;103125.38;5032811;28;20128;-60
2022/01/25 07:56:57;;;;;;;74.53;39.78;;;;;;;4.80;73.06;103134.97;5032049;28;20047;-59
2022/01/25 07:59:24;;;;;;;70.00;39.15;;;;;;;4.78;72.98;103134.06;5035275;28;20084;-59
2022/01/25 08:01:51;;;;;;;69.32;40.13;;;;;;;4.72;73.13;103121.91;5033455;28;20128;-59
2022/01/25 08:04:20;;;;;;;68.05;38.15;;;;;;;4.69;73.18;103123.63;5033942;28;20054;-59
2022/01/25 08:07:05;;;;;;;71.40;39.03;;;;;;;4.58;73.55;103132.22;5033665;28;20053;-60
2022/01/25 08:09:38;;;;;;;70.22;38.95;;;;;;;4.70;72.85;103125.38;5031895;28;20041;-59
2022/01/25 08:12:09;;;;;;;69.72;37.63;;;;;;;4.68;73.15;103133.13;5033541;28;20056;-60
2022/01/25 08:14:42;;;;;;;72.53;38.85;;;;;;;4.66;73.01;103129.66;5031789;28;20087;-60
2022/01/25 08:17:18;;;;;;;75.00;39.05;;;;;;;4.66;73.06;103133.97;5037013;28;20045;-59
2022/01/25 08:19:47;;;;;;;70.40;38.85;;;;;;;4.67;72.95;103138.31;5039202;28;20049;-59
2022/01/25 08:22:18;;;;;;;70.65;40.03;;;;;;;4.73;72.91;103128.81;5037405;28;20123;-60
2022/01/25 08:24:51;;;;;;;68.75;38.80;;;;;;;4.66;72.80;103128.78;5039090;28;20132;-60
2022/01/25 08:27:23;;;;;;;71.90;38.33;;;;;;;4.66;72.65;103127.06;5031035;28;20060;-60
2022/01/25 08:29:53;;;;;;;72.05;41.13;;;;;;;4.68;72.82;103133.13;5035646;28;20851;-59
2022/01/25 08:32:24;;;;;;;75.55;40.33;;;;;;;4.66;72.82;103132.28;5039807;28;20486;-60
2022/01/25 08:35:09;;;;;;;64.63;38.25;;;;;;;4.72;72.86;103132.31;5036997;28;20472;-60
2022/01/25 08:37:37;;;;;;;75.28;40.83;;;;;;;4.76;72.51;103129.72;5035917;28;20061;-60
2022/01/25 08:40:14;;;;;;;72.47;39.13;;;;;;;4.71;72.83;103132.28;5037263;28;20041;-59
2022/01/25 08:42:43;;;;;;;71.78;40.50;;;;;;;4.69;72.78;103134.88;5040085;28;20053;-59
2022/01/25 08:45:14;;;;;;;72.57;40.60;;;;;;;4.73;72.71;103131.44;5041993;28;20053;-60
2022/01/25 08:47:42;;;;;;;76.50;41.50;;;;;;;4.74;72.93;103132.31;5032552;28;20540;-60
2022/01/25 08:50:12;;;;;;;76.28;40.95;;;;;;;4.78;72.68;103126.25;5035243;28;20136;-59
2022/01/25 08:52:43;;;;;;;81.68;42.45;;;;;;;4.85;72.73;103117.66;5021259;28;20498;-60
2022/01/25 08:55:29;;;;;;;74.30;38.47;;;;;;;4.80;72.74;103116.75;5022904;28;20096;-60
2022/01/25 08:57:59;;;;;;;71.22;39.15;;;;;;;4.85;72.57;103112.44;5022174;28;20521;-60
2022/01/25 09:00:25;;;;;;;75.63;40.28;;;;;;;4.85;72.68;103112.44;5028161;28;20461;-60
2022/01/25 09:02:52;;;;;;;77.25;41.30;;;;;;;4.95;72.64;103102.06;5025271;28;20046;-59
2022/01/25 09:05:19;;;;;;;80.05;42.67;;;;;;;4.94;72.58;103110.72;5024343;28;20050;-59
2022/01/25 09:07:46;;;;;;;77.43;41.58;;;;;;;4.99;72.53;103107.31;5023514;28;20052;-59
2022/01/25 09:10:13;;;;;;;74.80;39.78;;;;;;;4.95;72.50;103107.28;5024153;28;20042;-59
2022/01/25 09:12:39;;;;;;;72.45;40.17;;;;;;;4.98;72.48;103107.31;5027525;28;20132;-59
2022/01/25 09:15:06;;;;;;;82.13;40.78;;;;;;;5.01;72.46;103113.38;5027499;28;20046;-59
2022/01/25 09:17:33;;;;;;;80.68;41.13;;;;;;;5.11;72.41;103113.44;5023379;28;20494;-59
2022/01/25 09:20:01;;;;;;;76.50;40.28;;;;;;;5.09;72.34;103115.16;5024110;28;20456;-59
2022/01/25 09:22:28;;;;;;;77.50;42.28;;;;;;;5.13;72.41;103109.97;5024141;28;20513;-60
2022/01/25 09:25:15;;;;;;;77.97;40.70;;;;;;;5.21;72.25;103110.00;5021394;28;20081;-59
2022/01/25 09:27:46;;;;;;;79.18;39.28;;;;;;;5.15;72.41;103116.03;5023155;28;20052;-59
2022/01/25 09:30:12;;;;;;;76.85;39.95;;;;;;;5.18;71.99;103110.88;5016563;28;20049;-59
2022/01/25 09:32:39;;;;;;;82.78;40.38;;;;;;;5.24;72.12;103110.00;5014624;28;20099;-59
2022/01/25 09:35:06;;;;;;;76.55;39.05;;;;;;;5.26;72.27;103108.28;5031025;28;20048;-59
2022/01/25 09:37:33;;;;;;;78.78;41.20;;;;;;;5.31;72.01;103106.56;5028710;28;20045;-59
2022/01/25 09:40:00;;;;;;;83.60;42.20;;;;;;;5.28;72.32;103114.38;5028709;28;20045;-59
2022/01/25 09:42:29;;;;;;;85.38;41.92;;;;;;;5.34;72.21;103111.78;5009974;28;20050;-60
2022/01/25 09:44:58;;;;;;;486.23;284.55;;;;;;;5.36;72.01;103106.59;5044819;28;20047;-60
2022/01/25 09:47:25;;;;;;;387.80;194.15;;;;;;;5.41;72.00;103110.09;5029102;28;20092;-60
2022/01/25 09:49:55;;;;;;;152.70;82.22;;;;;;;5.50;72.09;103110.09;5036156;28;20041;-59
2022/01/25 09:52:23;;;;;;;133.45;68.25;;;;;;;5.55;71.83;103102.31;5033170;28;20042;-60
2022/01/25 09:54:55;;;;;;;137.43;71.75;;;;;;;5.60;71.94;103110.13;5028918;28;20046;-59
2022/01/25 09:57:23;;;;;;;119.65;62.78;;;;;;;5.59;71.92;103104.06;5028190;28;20053;-60
2022/01/25 09:59:50;;;;;;;142.52;67.55;;;;;;;5.60;71.98;103099.72;5028447;28;20688;-59
2022/01/25 10:02:37;;;;;;;99.72;52.42;;;;;;;5.67;71.83;103097.13;5028782;28;20049;-60
2022/01/25 10:05:26;;;;;;;90.15;46.78;;;;;;;5.68;71.88;103096.25;5022572;28;20037;-60
2022/01/25 10:07:59;;;;;;;116.65;58.67;;;;;;;5.69;71.88;103091.94;5024277;28;20548;-60
2022/01/25 10:10:28;;;;;;;94.53;49.60;;;;;;;5.70;72.06;103084.13;5028643;28;20052;-59
2022/01/25 10:12:56;;;;;;;110.20;52.78;;;;;;;5.69;71.87;103087.56;5020126;28;20053;-59
2022/01/25 10:15:26;;;;;;;132.68;66.78;;;;;;;5.76;71.88;103075.44;5022802;28;20049;-59
2022/01/25 10:18:10;;;;;;;113.78;59.97;;;;;;;5.79;71.59;103072.84;5024283;28;20069;-58
2022/01/25 10:20:49;;;;;;;118.88;60.30;;;;;;;5.86;71.66;103069.34;5020777;28;20049;-59
2022/01/25 10:23:24;;;;;;;108.18;52.45;;;;;;;5.91;71.51;103065.91;5016354;28;20046;-59
2022/01/25 10:25:52;;;;;;;131.85;73.35;;;;;;;5.94;71.44;103068.50;5023641;28;20497;-59
2022/01/25 10:28:24;;;;;;;93.10;47.83;;;;;;;5.94;71.48;103058.97;5021797;28;20108;-59
2022/01/25 10:30:54;;;;;;;87.35;46.05;;;;;;;6.07;71.32;103056.38;5027324;28;20045;-58
2022/01/25 10:33:32;;;;;;;96.95;51.92;;;;;;;6.18;70.98;103057.22;5021268;28;20391;-57
2022/01/25 10:36:09;;;;;;;102.03;48.75;;;;;;;6.11;70.95;103058.13;5021225;28;20042;-57
2022/01/25 10:38:37;;;;;;;122.53;63.33;;;;;;;6.11;70.95;103056.38;5014013;28;20049;-57
2022/01/25 10:41:09;;;;;;;106.18;54.50;;;;;;;6.16;70.77;103044.19;5013576;28;20051;-56
2022/01/25 10:43:38;;;;;;;120.22;59.33;;;;;;;6.16;71.01;103045.94;5024535;28;20140;-57
2022/01/25 10:46:07;;;;;;;121.85;62.10;;;;;;;6.19;71.00;103038.97;5022848;28;20052;-56
2022/01/25 10:48:35;;;;;;;101.50;51.47;;;;;;;6.30;70.57;103038.97;5021870;28;20041;-56
2022/01/25 10:51:09;;;;;;;146.85;76.55;;;;;;;6.27;71.01;103041.59;5023132;28;20072;-58
2022/01/25 10:53:36;;;;;;;111.28;54.70;;;;;;;6.41;70.79;103035.47;5016933;28;20049;-56
2022/01/25 10:56:05;;;;;;;131.73;64.45;;;;;;;6.40;70.72;103037.22;5021518;28;20041;-56
2022/01/25 10:58:41;;;;;;;172.02;79.65;;;;;;;6.47;70.64;103030.25;5020714;28;20049;-59
2022/01/25 11:01:10;;;;;;;171.15;78.28;;;;;;;6.54;70.63;103018.94;5026219;28;20311;-59
2022/01/25 11:03:40;;;;;;;118.00;58.08;;;;;;;6.65;70.64;103019.78;5022231;28;20068;-59
2022/01/25 11:06:18;;;;;;;114.95;54.30;;;;;;;6.75;70.23;103007.53;5019719;28;20052;-58
2022/01/25 11:08:48;;;;;;;278.25;152.98;;;;;;;6.84;70.02;103010.13;5024736;28;20042;-60
2022/01/25 11:11:26;;;;;;;134.98;68.22;;;;;;;6.86;69.77;103010.97;5023075;28;20516;-60
2022/01/25 11:13:54;;;;;;;139.27;68.97;;;;;;;6.90;69.93;102995.31;5023896;28;20048;-59
2022/01/25 11:16:21;;;;;;;119.50;57.70;;;;;;;6.99;69.79;103003.09;5021364;28;20521;-59
2022/01/25 11:18:48;;;;;;;72.30;36.72;;;;;;;7.18;69.82;103002.09;5025035;28;20041;-59
2022/01/25 11:21:14;;;;;;;59.05;29.55;;;;;;;8.10;68.23;102994.44;5017848;28;20045;-57
2022/01/25 11:23:44;;;;;;;85.20;43.20;;;;;;;8.95;66.71;102984.75;5021039;28;20069;-56
2022/01/25 11:26:13;;;;;;;76.75;35.80;;;;;;;9.54;65.91;102981.28;5020606;28;20054;-57
2022/01/25 11:28:42;;;;;;;88.55;45.88;;;;;;;9.71;65.60;102975.75;5020026;28;20041;-57
2022/01/25 11:31:14;;;;;;;211.27;120.40;;;;;;;9.06;66.51;102975.00;5025135;28;20045;-58
2022/01/25 11:33:45;;;;;;;153.25;78.10;;;;;;;8.79;67.04;102973.63;5029221;28;20127;-58
2022/01/25 11:36:12;;;;;;;123.50;58.45;;;;;;;8.90;66.45;102961.25;5041544;28;20440;-58
2022/01/25 11:38:42;;;;;;;122.03;58.17;;;;;;;8.94;66.28;102965.56;5047571;28;20041;-59
2022/01/25 11:41:15;;;;;;;115.72;53.13;;;;;;;8.73;66.72;102958.00;5047565;28;20049;-59
2022/01/25 11:43:44;;;;;;;152.27;70.30;;;;;;;8.72;66.31;102956.25;5046875;28;20069;-57
2022/01/25 11:46:11;;;;;;;140.35;66.45;;;;;;;8.99;65.57;102950.66;5047173;28;20060;-58
2022/01/25 11:48:42;;;;;;;139.15;68.82;;;;;;;9.13;64.99;102949.59;5046035;28;20056;-58
2022/01/25 11:51:14;;;;;;;184.13;96.85;;;;;;;9.08;64.90;102946.19;5047537;28;20049;-58
2022/01/25 11:53:43;;;;;;;128.75;63.20;;;;;;;8.61;65.86;102938.94;5046872;28;20456;-60
2022/01/25 11:56:10;;;;;;;124.47;58.28;;;;;;;8.23;66.82;102949.81;5046889;28;20172;-60
2022/01/25 11:58:38;;;;;;;107.30;51.53;;;;;;;7.94;67.35;102946.66;5047326;28;20102;-58
2022/01/25 12:01:26;;;;;;;129.45;60.00;;;;;;;7.78;67.80;102948.56;5038550;28;20056;-58
2022/01/25 12:04:11;;;;;;;120.68;57.38;;;;;;;7.77;67.69;102938.97;5027141;28;20045;-58
2022/01/25 12:06:43;;;;;;;103.68;48.30;;;;;;;7.60;68.13;102938.25;5027065;28;20096;-57
2022/01/25 12:09:31;;;;;;;113.07;50.90;;;;;;;7.39;68.42;102937.56;5027195;28;20509;-60
2022/01/25 12:12:00;;;;;;;124.15;56.45;;;;;;;7.25;68.69;102932.44;5027078;28;20058;-58
2022/01/25 12:14:40;;;;;;;107.85;50.50;;;;;;;7.41;68.32;102921.88;5028670;28;20096;-58
2022/01/25 12:17:14;;;;;;;108.72;48.97;;;;;;;7.51;67.81;102928.75;5030857;28;20050;-61
2022/01/25 12:19:54;;;;;;;118.68;54.30;;;;;;;7.59;67.65;102908.66;5030686;28;20045;-59
2022/01/25 12:22:34;;;;;;;117.93;51.60;;;;;;;7.50;67.89;102909.59;5030681;28;20053;-61
2022/01/25 12:25:24;;;;;;;116.25;53.45;;;;;;;7.72;67.29;102898.97;5031113;28;20049;-60
2022/01/25 12:27:58;;;;;;;109.32;52.55;;;;;;;7.93;66.73;102894.38;5030318;28;20048;-60
2022/01/25 12:30:31;;;;;;;106.97;48.28;;;;;;;7.92;66.60;102901.38;5031103;28;20067;-60
2022/01/25 12:33:03;;;;;;;108.47;48.42;;;;;;;8.11;66.02;102891.56;5030833;28;20046;-60
2022/01/25 12:35:34;;;;;;;110.78;48.15;;;;;;;8.32;65.50;102886.97;5030414;28;20083;-60
2022/01/25 12:38:04;;;;;;;107.28;48.65;;;;;;;8.14;65.79;102886.28;5030317;28;20103;-60
2022/01/25 12:40:35;;;;;;;101.75;48.72;;;;;;;8.01;66.08;102884.69;5030853;28;20049;-60
2022/01/25 12:43:22;;;;;;;103.07;47.15;;;;;;;7.82;66.50;102887.53;5031228;28;20049;-60
2022/01/25 12:45:56;;;;;;;139.95;65.85;;;;;;;7.50;67.43;102874.75;5029562;28;20136;-60
2022/01/25 12:48:28;;;;;;;159.18;74.63;;;;;;;7.47;67.50;102872.19;5030762;28;20045;-60
2022/01/25 12:51:01;;;;;;;422.65;204.68;;;;;;;7.39;67.65;102868.78;5031136;28;20128;-61
2022/01/25 12:53:30;;;;;;;213.60;102.28;;;;;;;7.30;67.61;102867.97;5029347;28;20045;-60
2022/01/25 12:56:01;;;;;;;333.42;135.32;;;;;;;7.39;67.60;102855.72;5029658;28;20111;-62
2022/01/25 12:58:30;;;;;;;200.07;84.32;;;;;;;7.68;66.92;102858.03;5030608;28;20053;-61
2022/01/25 13:01:00;;;;;;;404.70;160.50;;;;;;;7.96;66.26;102848.16;5030508;28;20410;-60
2022/01/25 13:03:29;;;;;;;463.48;204.88;;;;;;;8.26;65.05;102840.81;5030661;28;20055;-62
2022/01/25 13:06:09;;;;;;;193.48;82.53;;;;;;;8.05;65.49;102841.06;5029839;28;20053;-60
2022/01/25 13:08:46;;;;;;;200.05;87.55;;;;;;;8.28;64.85;102836.44;5029652;28;20137;-60
2022/01/25 13:11:18;;;;;;;142.43;62.25;;;;;;;8.59;63.98;102832.56;5026455;28;20449;-60
2022/01/25 13:13:58;;;;;;;168.48;73.03;;;;;;;8.59;63.75;102833.41;5027914;28;20131;-59
2022/01/25 13:16:52;;;;;;;155.68;70.75;;;;;;;8.82;63.13;102832.19;5029249;28;20064;-60
2022/01/25 13:19:23;;;;;;;115.82;51.70;;;;;;;8.95;62.70;102836.38;5026954;28;20409;-59
2022/01/25 13:21:58;;;;;;;114.30;49.58;;;;;;;9.04;62.42;102831.84;5029788;28;20050;-61
2022/01/25 13:24:46;;;;;;;159.23;66.63;;;;;;;8.67;63.28;102833.28;5018784;28;20049;-60
2022/01/25 13:27:15;;;;;;;138.45;62.95;;;;;;;8.62;63.45;102828.16;5028067;28;20149;-61
2022/01/25 13:32:37;;;;;;;220.65;89.85;;;;;;;8.10;64.54;102831.44;5030056;28;20057;-61